createdAt,value
2022-08-22T00:01:43.011Z,78.74
2022-08-22T00:02:48.677Z,65.30
2022-08-22T00:02:53.140Z,63.10
2022-08-22T00:02:59.712Z,72.12
2022-08-22T00:03:02.936Z,63.53
2022-08-22T00:04:39.068Z,78.74
2022-08-22T00:07:35.415Z,78.91
2022-08-22T00:10:32.229Z,79.06
2022-08-22T00:14:01.151Z,79.62
2022-08-22T00:17:21.168Z,83.58
2022-08-22T00:20:06.342Z,81.26
2022-08-22T00:23:12.455Z,80.41
2022-08-22T00:26:04.450Z,80.40
2022-08-22T00:28:55.672Z,80.69
2022-08-22T00:31:40.064Z,80.74
2022-08-22T00:35:00.337Z,80.72
2022-08-22T00:37:41.365Z,80.31
2022-08-22T00:40:57.567Z,80.15
2022-08-22T00:44:21.498Z,80.16
2022-08-22T00:47:11.070Z,82.48
2022-08-22T00:50:03.427Z,81.84
2022-08-22T00:53:05.807Z,81.24
2022-08-22T00:56:33.823Z,81.76
2022-08-22T00:59:38.321Z,82.57
2022-08-22T01:02:43.767Z,81.54
2022-08-22T01:05:41.541Z,81.60
2022-08-22T01:08:22.397Z,81.36
2022-08-22T01:11:30.853Z,81.35
2022-08-22T01:14:21.021Z,82.26
2022-08-22T01:17:49.598Z,81.78
2022-08-22T01:21:11.112Z,81.69
2022-08-22T01:25:00.022Z,81.93
2022-08-22T01:28:27.571Z,82.35
2022-08-22T01:31:17.340Z,82.17
2022-08-22T01:34:28.742Z,82.18
2022-08-22T01:37:21.407Z,82.03
2022-08-22T01:40:32.325Z,82.23
2022-08-22T01:43:23.133Z,82.40
2022-08-22T01:46:42.554Z,82.33
2022-08-22T01:49:41.746Z,82.72
2022-08-22T01:52:21.123Z,82.48
2022-08-22T01:54:59.153Z,82.93
2022-08-22T01:57:28.193Z,83.32
2022-08-22T02:00:06.737Z,83.73
2022-08-22T02:03:10.715Z,83.43
2022-08-22T02:05:50.242Z,83.46
2022-08-22T02:08:44.004Z,83.75
2022-08-22T02:11:38.234Z,85.08
2022-08-22T02:14:42.651Z,84.03
2022-08-22T02:18:09.243Z,83.67
2022-08-22T02:21:26.627Z,83.94
2022-08-22T02:24:44.920Z,85.04
2022-08-22T02:28:03.649Z,84.41
2022-08-22T02:31:06.688Z,84.04
2022-08-22T02:33:46.861Z,84.59
2022-08-22T02:36:26.975Z,83.75
2022-08-22T02:39:34.964Z,84.03
2022-08-22T02:42:33.687Z,84.05
2022-08-22T02:46:03.589Z,83.75
2022-08-22T02:48:53.799Z,84.06
2022-08-22T02:51:33.694Z,84.09
2022-08-22T02:54:31.543Z,84.88
2022-08-22T02:57:14.318Z,84.24
2022-08-22T03:00:07.274Z,84.14
2022-08-22T03:03:16.409Z,85.95
2022-08-22T03:05:44.970Z,85.54
2022-08-22T03:08:29.492Z,84.75
2022-08-22T03:11:25.853Z,84.98
2022-08-22T03:14:20.881Z,85.09
2022-08-22T03:17:00.910Z,85.50
2022-08-22T03:20:05.181Z,85.75
2022-08-22T03:22:36.229Z,85.22
2022-08-22T03:25:20.205Z,85.33
2022-08-22T03:28:18.247Z,85.48
2022-08-22T03:31:19.492Z,85.57
2022-08-22T03:34:22.605Z,85.61
2022-08-22T03:37:02.812Z,87.00
2022-08-22T03:40:03.372Z,86.96
2022-08-22T03:43:21.762Z,85.61
2022-08-22T03:46:08.164Z,85.62
2022-08-22T03:49:08.494Z,85.51
2022-08-22T03:52:04.062Z,85.52
2022-08-22T03:55:18.734Z,86.15
2022-08-22T03:58:49.827Z,85.74
2022-08-22T04:01:55.731Z,85.68
2022-08-22T04:04:49.602Z,85.99
2022-08-22T04:08:15.554Z,85.74
2022-08-22T04:11:31.951Z,85.64
2022-08-22T04:14:40.056Z,85.39
2022-08-22T04:17:57.659Z,85.21
2022-08-22T04:20:44.254Z,85.29
2022-08-22T04:23:56.776Z,85.69
2022-08-22T04:26:53.151Z,85.37
2022-08-22T04:29:23.649Z,85.33
2022-08-22T04:32:14.586Z,84.90
2022-08-22T04:34:59.967Z,85.56
2022-08-22T04:37:28.367Z,87.16
2022-08-22T04:40:08.469Z,86.16
2022-08-22T04:42:45.981Z,85.46
2022-08-22T04:45:22.732Z,85.48
2022-08-22T04:48:16.930Z,85.21
2022-08-22T04:51:15.766Z,85.16
2022-08-22T04:54:11.422Z,84.80
2022-08-22T04:57:13.608Z,84.55
2022-08-22T04:59:43.824Z,84.45
2022-08-22T05:02:20.719Z,84.16
2022-08-22T05:05:16.009Z,84.65
2022-08-22T05:07:58.141Z,83.55
2022-08-22T05:10:39.435Z,83.71
2022-08-22T05:13:18.427Z,83.87
2022-08-22T05:15:52.162Z,83.64
2022-08-22T05:18:30.136Z,83.59
2022-08-22T05:21:03.664Z,83.31
2022-08-22T05:23:49.279Z,82.95
2022-08-22T05:26:19.561Z,82.50
2022-08-22T05:28:54.976Z,81.90
2022-08-22T05:31:41.957Z,81.21
2022-08-22T05:34:29.356Z,81.13
2022-08-22T05:37:25.847Z,80.53
2022-08-22T05:39:59.526Z,79.83
2022-08-22T05:42:36.971Z,80.44
2022-08-22T05:45:12.071Z,79.16
2022-08-22T05:48:10.015Z,78.63
2022-08-22T05:50:51.042Z,78.73
2022-08-22T05:53:45.703Z,78.35
2022-08-22T05:56:28.165Z,77.88
2022-08-22T05:59:04.175Z,77.85
2022-08-22T06:02:03.129Z,77.72
2022-08-22T06:04:35.884Z,77.31
2022-08-22T06:07:17.212Z,76.87
2022-08-22T06:09:48.259Z,76.76
2022-08-22T06:12:46.032Z,76.36
2022-08-22T06:15:20.842Z,76.22
2022-08-22T06:18:04.037Z,75.56
2022-08-22T06:21:00.822Z,75.00
2022-08-22T06:23:49.657Z,74.93
2022-08-22T06:26:20.855Z,75.22
2022-08-22T06:28:55.900Z,75.06
2022-08-22T06:31:34.366Z,73.36
2022-08-22T06:34:23.175Z,73.58
2022-08-22T06:36:54.732Z,73.29
2022-08-22T06:39:35.640Z,72.98
2022-08-22T06:42:16.924Z,72.88
2022-08-22T06:44:49.244Z,72.51
2022-08-22T06:47:29.194Z,72.01
2022-08-22T06:50:34.182Z,70.59
2022-08-22T06:53:17.359Z,70.93
2022-08-22T06:55:56.716Z,71.39
2022-08-22T06:58:38.486Z,70.59
2022-08-22T07:01:14.190Z,69.78
2022-08-22T07:04:00.739Z,68.80
2022-08-22T07:06:35.982Z,68.49
2022-08-22T07:09:07.061Z,66.25
2022-08-22T07:11:41.888Z,65.78
2022-08-22T07:14:16.003Z,65.35
2022-08-22T07:16:49.878Z,63.49
2022-08-22T07:19:28.929Z,64.90
2022-08-22T07:21:59.709Z,64.09
2022-08-22T07:24:33.172Z,64.60
2022-08-22T07:27:16.045Z,63.53
2022-08-22T07:29:59.930Z,63.27
2022-08-22T07:32:55.861Z,60.02
2022-08-22T07:35:39.725Z,61.72
2022-08-22T07:38:10.849Z,61.26
2022-08-22T07:41:05.506Z,61.06
2022-08-22T07:43:46.793Z,60.18
2022-08-22T07:46:27.797Z,60.64
2022-08-22T07:49:22.130Z,59.80
2022-08-22T07:51:59.084Z,60.39
2022-08-22T07:55:08.882Z,60.01
2022-08-22T07:57:41.557Z,59.62
2022-08-22T08:00:18.404Z,58.62
2022-08-22T08:02:59.302Z,58.63
2022-08-22T08:05:32.619Z,55.50
2022-08-22T08:08:08.605Z,56.90
2022-08-22T08:10:42.642Z,57.05
2022-08-22T08:13:21.508Z,56.36
2022-08-22T08:15:51.287Z,55.38
2022-08-22T08:18:26.034Z,54.52
2022-08-22T08:21:02.736Z,53.70
2022-08-22T08:23:40.279Z,54.42
2022-08-22T08:26:23.433Z,55.11
2022-08-22T08:28:55.563Z,54.23
2022-08-22T08:31:39.780Z,53.03
2022-08-22T08:34:20.649Z,53.49
2022-08-22T08:37:01.292Z,53.24
2022-08-22T08:39:48.720Z,52.96
2022-08-22T08:43:15.415Z,53.60
2022-08-22T08:46:40.058Z,52.96
2022-08-22T08:50:05.246Z,52.58
2022-08-22T08:52:42.500Z,53.00
2022-08-22T08:55:38.408Z,53.20
2022-08-22T08:58:30.352Z,52.12
2022-08-22T09:01:16.712Z,51.34
2022-08-22T09:04:19.769Z,51.39
2022-08-22T09:07:15.812Z,51.67
2022-08-22T09:10:16.630Z,52.28
2022-08-22T09:13:11.434Z,51.47
2022-08-22T09:19:49.173Z,51.56
2022-08-22T09:23:10.886Z,51.61
2022-08-22T09:26:09.579Z,50.60
2022-08-22T09:28:48.639Z,49.15
2022-08-22T09:31:48.357Z,49.86
2022-08-22T09:34:50.945Z,49.87
2022-08-22T09:37:46.602Z,47.88
2022-08-22T09:40:48.262Z,48.18
2022-08-22T09:43:48.630Z,48.68
2022-08-22T09:46:32.047Z,48.57
2022-08-22T09:49:16.459Z,47.99
2022-08-22T09:52:15.706Z,47.08
2022-08-22T09:55:19.324Z,48.04
2022-08-22T09:58:28.734Z,47.94
2022-08-22T10:01:23.889Z,48.68
2022-08-22T10:04:07.472Z,48.18
2022-08-22T10:07:01.861Z,48.57
2022-08-22T10:09:58.424Z,48.87
2022-08-22T10:12:45.292Z,46.58
2022-08-22T10:15:37.813Z,47.12
2022-08-22T10:18:43.974Z,44.84
2022-08-22T10:22:06.871Z,45.55
2022-08-22T10:24:53.701Z,45.45
2022-08-22T10:27:41.085Z,46.48
2022-08-22T10:30:19.298Z,46.81
2022-08-22T10:33:18.680Z,46.82
2022-08-22T10:35:51.131Z,47.16
2022-08-22T10:38:25.136Z,47.01
2022-08-22T10:41:32.856Z,46.88
2022-08-22T10:44:19.083Z,47.05
2022-08-22T10:46:53.288Z,46.76
2022-08-22T10:50:00.308Z,45.91
2022-08-22T10:52:39.223Z,46.31
2022-08-22T10:55:21.224Z,45.39
2022-08-22T10:58:30.119Z,45.29
2022-08-22T11:01:38.635Z,45.46
2022-08-22T11:04:37.598Z,45.05
2022-08-22T11:07:44.586Z,44.84
2022-08-22T11:11:00.957Z,44.99
2022-08-22T11:13:43.210Z,44.09
2022-08-22T11:16:29.770Z,45.12
2022-08-22T11:19:36.189Z,45.65
2022-08-22T11:22:27.413Z,44.67
2022-08-22T11:25:07.587Z,44.11
2022-08-22T11:27:51.554Z,44.49
2022-08-22T11:31:07.276Z,43.92
2022-08-22T11:34:03.714Z,43.38
2022-08-22T11:36:47.288Z,43.07
2022-08-22T11:39:52.385Z,42.63
2022-08-22T11:42:34.561Z,41.46
2022-08-22T11:45:07.014Z,41.97
2022-08-22T11:47:51.072Z,41.55
2022-08-22T11:50:42.210Z,40.50
2022-08-22T11:53:43.633Z,40.74
2022-08-22T11:56:35.468Z,41.25
2022-08-22T11:59:43.225Z,41.49
2022-08-22T12:02:55.254Z,41.80
2022-08-22T12:05:33.898Z,41.82
2022-08-22T12:08:49.644Z,42.76
2022-08-22T12:11:45.133Z,43.99
2022-08-22T12:14:51.285Z,45.19
2022-08-22T12:18:14.333Z,43.82
2022-08-22T12:21:56.018Z,45.61
2022-08-22T12:24:36.251Z,45.62
2022-08-22T12:27:36.831Z,46.84
2022-08-22T12:30:13.759Z,45.55
2022-08-22T12:33:07.227Z,46.06
2022-08-22T12:36:18.030Z,45.53
2022-08-22T12:39:18.141Z,46.36
2022-08-22T12:42:10.768Z,46.04
2022-08-22T12:44:59.476Z,44.00
2022-08-22T12:48:06.348Z,44.46
2022-08-22T12:50:58.218Z,46.66
2022-08-22T12:53:44.274Z,45.77
2022-08-22T12:56:25.885Z,45.91
2022-08-22T12:59:27.901Z,45.46
2022-08-22T13:02:01.581Z,45.37
2022-08-22T13:04:34.400Z,44.86
2022-08-22T13:07:31.806Z,45.14
2022-08-22T13:10:31.282Z,44.49
2022-08-22T13:13:01.115Z,44.48
2022-08-22T13:15:56.473Z,44.00
2022-08-22T13:18:35.606Z,43.58
2022-08-22T13:21:12.708Z,44.95
2022-08-22T13:23:47.236Z,44.41
2022-08-22T13:26:34.001Z,43.27
2022-08-22T13:29:39.425Z,45.51
2022-08-22T13:32:33.555Z,44.70
2022-08-22T13:35:07.562Z,43.91
2022-08-22T13:37:44.947Z,42.44
2022-08-22T13:40:21.682Z,41.97
2022-08-22T13:42:55.621Z,42.89
2022-08-22T13:45:28.301Z,43.16
2022-08-22T13:48:03.525Z,43.35
2022-08-22T13:50:53.151Z,41.93
2022-08-22T13:54:01.053Z,41.24
2022-08-22T13:56:47.245Z,40.38
2022-08-22T14:00:05.588Z,41.38
2022-08-22T14:03:05.440Z,39.04
2022-08-22T14:05:53.267Z,38.92
2022-08-22T14:08:30.711Z,38.29
2022-08-22T14:11:37.308Z,37.74
2022-08-22T14:14:08.231Z,37.98
2022-08-22T14:16:51.565Z,38.90
2022-08-22T14:19:27.324Z,37.55
2022-08-22T14:22:01.973Z,38.66
2022-08-22T14:24:55.881Z,38.40
2022-08-22T14:28:06.490Z,38.01
2022-08-22T14:30:59.476Z,39.24
2022-08-22T14:33:56.684Z,38.89
2022-08-22T14:36:38.166Z,39.01
2022-08-22T14:39:23.600Z,39.05
2022-08-22T14:42:04.158Z,37.87
2022-08-22T14:45:06.476Z,38.26
2022-08-22T14:48:29.618Z,37.21
2022-08-22T14:51:23.960Z,38.31
2022-08-22T14:53:52.728Z,38.76
2022-08-22T14:56:29.873Z,41.56
2022-08-22T14:59:03.202Z,41.04
2022-08-22T15:01:33.849Z,42.83
2022-08-22T15:04:08.921Z,43.97
2022-08-22T15:06:52.619Z,44.84
2022-08-22T15:09:36.555Z,43.04
2022-08-22T15:12:35.692Z,43.39
2022-08-22T15:15:28.628Z,45.01
2022-08-22T15:17:57.423Z,44.66
2022-08-22T15:20:36.264Z,45.18
2022-08-22T15:23:27.863Z,45.39
2022-08-22T15:26:06.810Z,48.12
2022-08-22T15:28:52.628Z,50.45
2022-08-22T15:31:22.779Z,49.41
2022-08-22T15:33:52.297Z,49.18
2022-08-22T15:36:25.213Z,49.48
2022-08-22T15:39:27.741Z,50.29
2022-08-22T15:41:57.135Z,49.95
2022-08-22T15:44:36.188Z,50.11
2022-08-22T15:47:23.778Z,50.16
2022-08-22T15:50:05.681Z,49.67
2022-08-22T15:53:06.581Z,50.18
2022-08-22T15:55:37.100Z,50.26
2022-08-22T15:58:13.115Z,50.56
2022-08-22T16:01:03.738Z,53.17
2022-08-22T16:03:36.411Z,53.10
2022-08-22T16:06:11.585Z,54.81
2022-08-22T16:08:51.318Z,54.37
2022-08-22T16:11:34.887Z,54.64
2022-08-22T16:14:24.105Z,55.01
2022-08-22T16:17:02.453Z,56.14
2022-08-22T16:19:34.455Z,57.18
2022-08-22T16:22:07.507Z,57.43
2022-08-22T16:25:00.793Z,57.64
2022-08-22T16:27:30.086Z,57.89
2022-08-22T16:30:08.832Z,58.32
2022-08-22T16:32:38.409Z,58.89
2022-08-22T16:35:07.185Z,58.71
2022-08-22T16:37:49.219Z,60.02
2022-08-22T16:40:25.738Z,60.05
2022-08-22T16:43:15.534Z,59.99
2022-08-22T16:45:46.337Z,60.35
2022-08-22T16:48:36.736Z,60.88
2022-08-22T16:51:21.342Z,61.07
2022-08-22T16:54:02.578Z,61.71
2022-08-22T16:56:49.949Z,62.07
2022-08-22T16:59:41.873Z,62.38
2022-08-22T17:02:45.517Z,62.71
2022-08-22T17:06:15.101Z,62.30
2022-08-22T17:09:17.423Z,62.90
2022-08-22T17:12:12.854Z,62.93
2022-08-22T17:15:25.481Z,62.78
2022-08-22T17:18:34.067Z,63.16
2022-08-22T17:21:29.102Z,63.89
2022-08-22T17:24:33.452Z,64.76
2022-08-22T17:27:23.638Z,65.07
2022-08-22T17:30:09.762Z,65.86
2022-08-22T17:33:28.045Z,66.83
2022-08-22T17:36:26.788Z,67.21
2022-08-22T17:39:12.952Z,67.46
2022-08-22T17:42:06.084Z,67.71
2022-08-22T17:45:13.132Z,68.67
2022-08-22T17:48:00.799Z,68.79
2022-08-22T17:50:57.309Z,68.92
2022-08-22T17:53:50.098Z,69.24
2022-08-22T17:56:32.872Z,69.49
2022-08-22T17:59:05.341Z,69.48
2022-08-22T18:01:56.426Z,69.67
2022-08-22T18:04:36.042Z,69.87
2022-08-22T18:07:32.808Z,69.79
2022-08-22T18:10:22.236Z,70.13
2022-08-22T18:13:27.161Z,70.16
2022-08-22T18:16:36.295Z,69.98
2022-08-22T18:19:10.443Z,70.44
2022-08-22T18:22:04.890Z,69.89
2022-08-22T18:24:43.462Z,70.10
2022-08-22T18:27:44.685Z,70.24
2022-08-22T18:30:46.649Z,70.28
2022-08-22T18:33:31.063Z,70.02
2022-08-22T18:36:29.641Z,69.77
2022-08-22T18:39:19.329Z,70.31
2022-08-22T18:42:02.705Z,70.55
2022-08-22T18:44:36.391Z,70.43
2022-08-22T18:47:35.397Z,70.22
2022-08-22T18:50:34.255Z,71.47
2022-08-22T18:53:24.330Z,74.97
2022-08-22T18:56:01.892Z,75.25
2022-08-22T18:58:49.395Z,73.78
2022-08-22T19:01:45.249Z,74.49
2022-08-22T19:04:41.385Z,76.31
2022-08-22T19:07:30.041Z,78.80
2022-08-22T19:10:34.411Z,80.71
2022-08-22T19:13:29.896Z,83.04
2022-08-22T19:16:49.116Z,81.52
2022-08-22T19:20:09.749Z,79.92
2022-08-22T19:22:39.384Z,78.96
2022-08-22T19:25:27.308Z,82.84
2022-08-22T19:28:10.688Z,85.20
2022-08-22T19:30:46.818Z,82.04
2022-08-22T19:33:34.251Z,81.54
2022-08-22T19:36:29.518Z,81.77
2022-08-22T19:39:09.322Z,86.39
2022-08-22T19:41:53.097Z,82.56
2022-08-22T19:44:21.330Z,82.77
2022-08-22T19:47:11.178Z,83.19
2022-08-22T19:49:45.532Z,82.41
2022-08-22T19:52:16.797Z,82.30
2022-08-22T19:55:30.062Z,82.34
2022-08-22T19:58:04.729Z,81.99
2022-08-22T20:00:53.698Z,85.99
2022-08-22T20:04:04.277Z,86.42
2022-08-22T20:06:53.404Z,87.23
2022-08-22T20:09:42.905Z,91.29
2022-08-22T20:12:29.906Z,88.05
2022-08-22T20:15:12.373Z,89.12
2022-08-22T20:17:43.817Z,87.19
2022-08-22T20:20:39.069Z,86.36
2022-08-22T20:23:25.243Z,86.16
2022-08-22T20:25:56.057Z,86.00
2022-08-22T20:28:44.441Z,86.07
2022-08-22T20:31:26.408Z,86.03
2022-08-22T20:34:04.308Z,86.20
2022-08-22T20:36:33.086Z,86.11
2022-08-22T20:39:14.461Z,86.08
2022-08-22T20:41:50.114Z,86.50
2022-08-22T20:44:37.895Z,86.29
2022-08-22T20:47:13.409Z,88.26
2022-08-22T20:50:02.490Z,89.52
2022-08-22T20:52:39.148Z,90.31
2022-08-22T20:55:21.505Z,89.23
2022-08-22T20:58:03.730Z,93.39
2022-08-22T21:00:45.565Z,90.84
2022-08-22T21:03:31.042Z,90.96
2022-08-22T21:06:12.583Z,89.11
2022-08-22T21:08:42.714Z,88.43
2022-08-22T21:11:39.444Z,87.90
2022-08-22T21:14:26.552Z,89.37
2022-08-22T21:16:54.908Z,90.20
2022-08-22T21:19:29.645Z,90.69
2022-08-22T21:22:15.600Z,89.52
2022-08-22T21:24:45.588Z,89.87
2022-08-22T21:27:26.342Z,93.87
2022-08-22T21:29:55.543Z,96.69
2022-08-22T21:32:53.625Z,92.76
2022-08-22T21:35:33.449Z,90.88
2022-08-22T21:38:02.575Z,90.54
2022-08-22T21:40:36.418Z,91.41
2022-08-22T21:43:27.532Z,92.41
2022-08-22T21:45:56.163Z,91.80
2022-08-22T21:48:59.198Z,91.80
2022-08-22T21:51:41.035Z,91.09
2022-08-22T21:54:31.891Z,90.38
2022-08-22T21:57:18.001Z,90.40
2022-08-22T21:59:59.116Z,90.98
2022-08-22T22:02:41.440Z,90.85
2022-08-22T22:05:13.363Z,92.40
2022-08-22T22:07:44.873Z,92.03
2022-08-22T22:10:19.546Z,93.05
2022-08-22T22:12:52.511Z,91.67
2022-08-22T22:15:25.212Z,91.07
2022-08-22T22:17:54.884Z,90.69
2022-08-22T22:20:26.361Z,90.62
2022-08-22T22:22:55.656Z,90.39
2022-08-22T22:25:41.034Z,90.20
2022-08-22T22:28:30.346Z,90.53
2022-08-22T22:30:58.779Z,90.10
2022-08-22T22:33:31.537Z,90.14
2022-08-22T22:36:08.201Z,90.16
2022-08-22T22:38:39.561Z,90.19
2022-08-22T22:41:08.047Z,90.10
2022-08-22T22:43:36.676Z,90.39
2022-08-22T22:46:05.442Z,90.50
2022-08-22T22:48:33.914Z,90.29
2022-08-22T22:51:13.064Z,90.27
2022-08-22T22:53:43.737Z,90.09
2022-08-22T22:56:22.464Z,90.00
2022-08-22T22:59:00.851Z,90.26
2022-08-22T23:02:09.014Z,90.54
2022-08-22T23:04:40.998Z,90.28
2022-08-22T23:07:12.329Z,89.79
2022-08-22T23:09:45.071Z,90.02
2022-08-22T23:12:15.355Z,90.03
2022-08-22T23:14:43.926Z,89.91
2022-08-22T23:17:13.193Z,89.86
2022-08-22T23:19:42.297Z,90.06
2022-08-22T23:22:15.094Z,89.83
2022-08-22T23:24:43.698Z,89.71
2022-08-22T23:27:12.373Z,90.15
2022-08-22T23:29:42.107Z,89.87
2022-08-22T23:32:12.986Z,89.62
2022-08-22T23:34:46.491Z,89.48
2022-08-22T23:37:20.082Z,89.60
2022-08-22T23:39:49.510Z,90.30
2022-08-22T23:42:18.346Z,89.86
2022-08-22T23:44:47.123Z,89.64
2022-08-22T23:47:16.333Z,89.65
2022-08-22T23:49:44.927Z,89.98
2022-08-22T23:52:14.329Z,89.79
2022-08-22T23:54:43.124Z,90.28
2022-08-22T23:57:12.708Z,90.09
2022-08-22T23:59:48.468Z,89.96
